createdAt,value
2022-12-14T00:01:38.894Z,12.35
2022-12-14T00:04:09.768Z,11.85
2022-12-14T00:06:37.148Z,12.70
2022-12-14T00:09:06.065Z,11.35
2022-12-14T00:11:34.413Z,11.70
2022-12-14T00:14:03.519Z,12.02
2022-12-14T00:16:32.994Z,12.35
2022-12-14T00:19:01.732Z,10.50
2022-12-14T00:21:28.915Z,11.77
2022-12-14T00:23:59.819Z,11.95
2022-12-14T00:26:30.844Z,10.52
2022-12-14T00:28:59.453Z,10.98
2022-12-14T00:31:26.703Z,11.20
2022-12-14T00:33:54.700Z,11.45
2022-12-14T00:36:21.936Z,10.65
2022-12-14T00:38:48.965Z,11.30
2022-12-14T00:41:16.080Z,11.35
2022-12-14T00:43:43.402Z,10.18
2022-12-14T00:46:11.067Z,11.73
2022-12-14T00:48:38.287Z,10.57
2022-12-14T00:51:06.351Z,9.73
2022-12-14T00:53:33.442Z,10.02
2022-12-14T00:56:07.477Z,10.32
2022-12-14T00:58:35.279Z,10.07
2022-12-14T01:01:09.956Z,11.07
2022-12-14T01:03:37.271Z,10.13
2022-12-14T01:06:04.604Z,10.00
2022-12-14T01:08:37.479Z,11.13
2022-12-14T01:11:07.662Z,10.80
2022-12-14T01:13:36.022Z,10.23
2022-12-14T01:16:12.637Z,11.25
2022-12-14T01:18:42.217Z,10.93
2022-12-14T01:21:10.870Z,11.02
2022-12-14T01:23:38.034Z,10.57
2022-12-14T01:26:06.567Z,11.05
2022-12-14T01:28:35.338Z,10.18
2022-12-14T01:31:12.198Z,10.15
2022-12-14T01:33:39.943Z,10.75
2022-12-14T01:36:10.140Z,10.30
2022-12-14T01:38:37.671Z,10.07
2022-12-14T01:41:07.578Z,10.93
2022-12-14T01:43:49.069Z,10.57
2022-12-14T01:46:39.134Z,9.88
2022-12-14T01:49:19.199Z,9.85
2022-12-14T01:51:54.896Z,11.07
2022-12-14T01:54:22.447Z,10.50
2022-12-14T01:56:50.174Z,10.43
2022-12-14T01:59:23.154Z,10.43
2022-12-14T02:01:52.227Z,10.48
2022-12-14T02:04:20.160Z,10.32
2022-12-14T02:06:49.273Z,10.75
2022-12-14T02:09:23.425Z,10.40
2022-12-14T02:12:14.843Z,9.85
2022-12-14T02:14:42.222Z,11.38
2022-12-14T02:17:12.099Z,11.02
2022-12-14T02:19:41.682Z,10.25
2022-12-14T02:22:27.280Z,10.90
2022-12-14T02:25:00.693Z,10.52
2022-12-14T02:27:42.888Z,10.95
2022-12-14T02:30:18.767Z,10.95
2022-12-14T02:33:09.946Z,11.45
2022-12-14T02:35:42.675Z,9.68
2022-12-14T02:38:15.743Z,11.13
2022-12-14T02:41:15.142Z,10.50
2022-12-14T02:43:57.387Z,9.60
2022-12-14T02:46:39.393Z,10.40
2022-12-14T02:49:33.438Z,10.75
2022-12-14T02:52:14.505Z,10.07
2022-12-14T02:54:47.490Z,9.88
2022-12-14T02:57:29.693Z,10.38
2022-12-14T03:00:00.389Z,9.95
2022-12-14T03:02:29.547Z,10.75
2022-12-14T03:04:56.754Z,10.52
2022-12-14T03:07:23.877Z,9.75
2022-12-14T03:09:52.251Z,9.85
2022-12-14T03:12:20.655Z,11.18
2022-12-14T03:14:52.531Z,10.23
2022-12-14T03:17:25.415Z,9.98
2022-12-14T03:20:12.965Z,10.23
2022-12-14T03:22:47.170Z,8.25
2022-12-14T03:25:20.719Z,10.55
2022-12-14T03:28:13.273Z,10.00
2022-12-14T03:31:00.076Z,9.75
2022-12-14T03:33:30.325Z,10.65
2022-12-14T03:36:07.501Z,11.05
2022-12-14T03:38:47.385Z,10.25
2022-12-14T03:41:34.492Z,9.85
2022-12-14T03:44:29.779Z,9.38
2022-12-14T03:47:27.293Z,9.57
2022-12-14T03:50:02.086Z,9.75
2022-12-14T03:52:37.074Z,10.27
2022-12-14T03:55:38.951Z,9.98
2022-12-14T03:58:07.412Z,10.52
2022-12-14T04:00:51.246Z,10.55
2022-12-14T04:04:15.720Z,10.20
2022-12-14T04:06:52.571Z,8.90
2022-12-14T04:09:40.268Z,9.93
2022-12-14T04:12:39.030Z,9.43
2022-12-14T04:15:34.155Z,9.50
2022-12-14T04:18:26.251Z,10.45
2022-12-14T04:21:03.431Z,9.68
2022-12-14T04:24:01.388Z,8.57
2022-12-14T04:26:34.791Z,9.82
2022-12-14T04:29:30.136Z,9.52
2022-12-14T04:32:25.298Z,8.90
2022-12-14T04:35:02.250Z,9.48
2022-12-14T04:37:31.068Z,10.38
2022-12-14T04:40:07.566Z,9.52
2022-12-14T04:42:48.499Z,9.05
2022-12-14T04:45:24.902Z,9.73
2022-12-14T04:48:02.496Z,10.10
2022-12-14T04:50:36.614Z,9.32
2022-12-14T04:53:20.931Z,9.48
2022-12-14T04:55:53.371Z,9.65
2022-12-14T04:58:26.233Z,9.25
2022-12-14T05:01:11.876Z,9.55
2022-12-14T05:04:12.923Z,9.63
2022-12-14T05:06:51.701Z,9.75
2022-12-14T05:09:39.167Z,9.52
2022-12-14T05:12:16.930Z,9.98
2022-12-14T05:14:49.716Z,9.38
2022-12-14T05:17:17.970Z,10.38
2022-12-14T05:19:50.608Z,12.82
2022-12-14T05:22:18.357Z,12.82
2022-12-14T05:24:45.459Z,13.95
2022-12-14T05:27:12.795Z,15.52
2022-12-14T05:29:40.047Z,12.70
2022-12-14T05:32:11.006Z,11.57
2022-12-14T05:34:38.370Z,9.73
2022-12-14T05:37:06.788Z,9.48
2022-12-14T05:39:33.801Z,9.07
2022-12-14T05:42:00.879Z,9.57
2022-12-14T05:44:27.882Z,9.02
2022-12-14T05:46:55.617Z,9.05
2022-12-14T05:49:22.649Z,8.50
2022-12-14T05:51:49.750Z,9.27
2022-12-14T05:54:17.059Z,9.60
2022-12-14T05:56:44.087Z,9.07
2022-12-14T05:59:15.439Z,9.25
2022-12-14T06:01:43.882Z,8.45
2022-12-14T06:04:15.664Z,9.38
2022-12-14T06:06:43.116Z,10.23
2022-12-14T06:09:14.133Z,9.27
2022-12-14T06:11:41.752Z,9.63
2022-12-14T06:14:09.858Z,10.27
2022-12-14T06:16:40.203Z,8.82
2022-12-14T06:19:07.870Z,9.48
2022-12-14T06:21:40.007Z,9.38
2022-12-14T06:24:08.062Z,9.20
2022-12-14T06:26:42.877Z,10.25
2022-12-14T06:29:18.553Z,11.20
2022-12-14T06:31:45.704Z,9.27
2022-12-14T06:34:17.596Z,10.35
2022-12-14T06:36:46.923Z,10.93
2022-12-14T06:39:16.424Z,25.50
2022-12-14T06:41:43.922Z,29.55
2022-12-14T06:44:14.075Z,13.93
2022-12-14T06:46:41.654Z,10.38
2022-12-14T06:49:13.943Z,10.43
2022-12-14T06:51:42.068Z,9.75
2022-12-14T06:54:13.887Z,10.50
2022-12-14T06:56:43.066Z,11.93
2022-12-14T06:59:11.233Z,11.38
2022-12-14T07:01:41.588Z,12.38
2022-12-14T07:04:10.193Z,17.38
2022-12-14T07:06:40.074Z,14.35
2022-12-14T07:09:11.652Z,11.63
2022-12-14T07:11:38.761Z,10.35
2022-12-14T07:14:12.474Z,10.23
2022-12-14T07:16:40.020Z,10.43
2022-12-14T07:19:07.455Z,10.82
2022-12-14T07:21:34.512Z,12.05
2022-12-14T07:24:01.879Z,12.23
2022-12-14T07:26:29.994Z,11.68
2022-12-14T07:29:00.523Z,10.60
2022-12-14T07:31:28.999Z,11.05
2022-12-14T07:33:59.505Z,11.70
2022-12-14T07:36:28.831Z,12.07
2022-12-14T07:38:56.951Z,11.80
2022-12-14T07:41:30.415Z,11.40
2022-12-14T07:43:59.418Z,11.98
2022-12-14T07:46:28.475Z,12.63
2022-12-14T07:48:57.676Z,10.30
2022-12-14T07:51:27.594Z,11.23
2022-12-14T07:53:54.890Z,12.48
2022-12-14T07:56:27.903Z,11.07
2022-12-14T07:58:57.272Z,12.32
2022-12-14T08:01:26.860Z,11.40
2022-12-14T08:03:57.109Z,10.50
2022-12-14T08:06:26.769Z,11.95
2022-12-14T08:08:54.490Z,11.90
2022-12-14T08:11:24.922Z,13.18
2022-12-14T08:13:54.914Z,13.00
2022-12-14T08:16:22.768Z,12.48
2022-12-14T08:18:49.983Z,12.02
2022-12-14T08:21:20.887Z,12.63
2022-12-14T08:23:49.275Z,16.05
2022-12-14T08:26:16.505Z,21.10
2022-12-14T08:28:43.662Z,16.00
2022-12-14T08:31:16.117Z,15.35
2022-12-14T08:33:44.341Z,17.05
2022-12-14T08:36:17.914Z,18.27
2022-12-14T08:41:14.264Z,13.23
2022-12-14T08:43:41.676Z,16.30
2022-12-14T08:46:10.113Z,14.50
2022-12-14T08:48:37.817Z,14.00
2022-12-14T08:51:08.332Z,13.27
2022-12-14T08:53:37.367Z,13.90
2022-12-14T08:56:10.902Z,13.45
2022-12-14T09:01:15.809Z,11.23
2022-12-14T09:03:47.131Z,13.07
2022-12-14T09:06:17.055Z,13.20
2022-12-14T09:08:45.233Z,15.05
2022-12-14T09:11:14.474Z,13.35
2022-12-14T09:13:42.497Z,12.38
2022-12-14T09:16:20.661Z,12.35
2022-12-14T09:18:49.216Z,12.27
2022-12-14T09:21:18.052Z,12.70
2022-12-14T09:23:45.835Z,12.73
2022-12-14T09:26:14.454Z,12.00
2022-12-14T09:28:44.677Z,13.23
2022-12-14T09:31:13.983Z,12.27
2022-12-14T09:33:41.752Z,11.93
2022-12-14T09:36:21.656Z,13.15
2022-12-14T09:38:55.194Z,11.48
2022-12-14T09:43:56.862Z,12.15
2022-12-14T09:46:50.022Z,13.65
2022-12-14T09:49:32.382Z,12.98
2022-12-14T09:52:04.433Z,12.50
2022-12-14T09:54:37.067Z,12.88
2022-12-14T09:57:29.418Z,12.45
2022-12-14T09:59:56.779Z,12.90
2022-12-14T10:02:31.508Z,12.60
2022-12-14T10:05:11.429Z,12.60
2022-12-14T10:07:56.689Z,11.85
2022-12-14T10:10:50.865Z,11.77
2022-12-14T10:15:56.087Z,11.02
2022-12-14T10:19:03.199Z,11.63
2022-12-14T10:21:57.635Z,12.48
2022-12-14T10:26:58.683Z,10.43
2022-12-14T10:29:32.325Z,11.45
2022-12-14T10:34:35.340Z,10.02
2022-12-14T10:37:12.117Z,10.07
2022-12-14T10:39:57.515Z,10.93
2022-12-14T10:42:42.500Z,10.30
2022-12-14T10:45:40.121Z,11.32
2022-12-14T10:48:17.492Z,11.18
2022-12-14T10:50:57.703Z,11.20
2022-12-14T10:53:47.805Z,10.20
2022-12-14T10:56:25.526Z,11.13
2022-12-14T10:59:20.662Z,10.98
2022-12-14T11:02:00.878Z,9.77
2022-12-14T11:04:32.117Z,10.70
2022-12-14T11:07:02.093Z,11.25
2022-12-14T11:09:29.863Z,10.77
2022-12-14T11:12:03.949Z,11.02
2022-12-14T11:14:32.334Z,11.00
2022-12-14T11:16:59.654Z,10.45
2022-12-14T11:19:28.258Z,10.57
2022-12-14T11:22:20.144Z,11.10
2022-12-14T11:24:49.284Z,10.48
2022-12-14T11:27:21.393Z,10.23
2022-12-14T11:29:50.752Z,10.73
2022-12-14T11:32:25.257Z,10.75
2022-12-14T11:34:59.049Z,11.25
2022-12-14T11:37:31.563Z,10.48
2022-12-14T11:40:01.515Z,10.57
2022-12-14T11:42:28.796Z,10.50
2022-12-14T11:45:27.707Z,10.55
2022-12-14T11:48:13.266Z,11.60
2022-12-14T11:50:41.848Z,11.48
2022-12-14T11:53:14.737Z,10.40
2022-12-14T11:56:12.803Z,10.68
2022-12-14T11:58:49.303Z,11.80
2022-12-14T12:01:19.512Z,11.38
2022-12-14T12:03:52.129Z,11.95
2022-12-14T12:06:22.602Z,10.82
2022-12-14T12:09:11.483Z,11.65
2022-12-14T12:11:45.264Z,10.35
2022-12-14T12:14:29.463Z,11.90
2022-12-14T12:16:57.900Z,10.43
2022-12-14T12:19:30.705Z,11.02
2022-12-14T12:22:00.868Z,11.60
2022-12-14T12:25:25.019Z,12.00
2022-12-14T12:27:56.954Z,9.32
2022-12-14T12:30:30.467Z,10.00
2022-12-14T12:33:21.795Z,9.85
2022-12-14T12:35:57.444Z,7.25
2022-12-14T12:38:36.941Z,8.45
2022-12-14T12:41:21.639Z,9.30
2022-12-14T12:43:54.545Z,9.20
2022-12-14T12:46:28.314Z,9.02
2022-12-14T12:49:15.814Z,10.20
2022-12-14T12:51:51.505Z,9.10
2022-12-14T12:54:24.588Z,9.15
2022-12-14T12:56:55.847Z,8.73
2022-12-14T12:59:37.092Z,10.23
2022-12-14T13:02:42.813Z,9.43
2022-12-14T13:08:26.784Z,9.18
2022-12-14T13:11:25.234Z,8.48
2022-12-14T13:14:02.320Z,7.85
2022-12-14T13:16:38.021Z,7.70
2022-12-14T13:19:54.456Z,8.13
2022-12-14T13:22:33.571Z,6.57
2022-12-14T13:25:12.569Z,6.65
2022-12-14T13:28:11.284Z,6.63
2022-12-14T13:31:03.154Z,5.75
2022-12-14T13:34:15.205Z,6.25
2022-12-14T13:37:01.228Z,5.90
2022-12-14T13:40:02.479Z,6.97
2022-12-14T13:42:57.812Z,7.57
2022-12-14T13:45:32.216Z,6.65
2022-12-14T13:47:59.674Z,7.88
2022-12-14T13:50:36.608Z,7.97
2022-12-14T13:53:21.476Z,8.57
2022-12-14T13:55:54.495Z,7.05
2022-12-14T13:58:39.406Z,9.13
2022-12-14T14:01:11.808Z,8.55
2022-12-14T14:03:38.906Z,8.77
2022-12-14T14:06:09.229Z,9.30
2022-12-14T14:08:42.080Z,8.70
2022-12-14T14:14:27.163Z,9.20
2022-12-14T14:17:03.354Z,10.52
2022-12-14T14:19:37.422Z,10.80
2022-12-14T14:22:26.417Z,10.27
2022-12-14T14:24:56.208Z,9.80
2022-12-14T14:27:50.596Z,10.07
2022-12-14T14:30:28.505Z,9.25
2022-12-14T14:33:07.655Z,9.75
2022-12-14T14:35:40.507Z,9.07
2022-12-14T14:38:26.031Z,9.85
2022-12-14T14:41:16.628Z,9.40
2022-12-14T14:43:52.150Z,9.63
2022-12-14T14:46:23.430Z,9.38
2022-12-14T14:48:54.458Z,10.40
2022-12-14T14:51:30.074Z,9.07
2022-12-14T14:55:03.479Z,10.15
2022-12-14T14:57:56.534Z,8.27
2022-12-14T15:00:23.686Z,10.05
2022-12-14T15:02:53.425Z,8.80
2022-12-14T15:05:42.024Z,9.98
2022-12-14T15:08:20.750Z,8.25
2022-12-14T15:10:50.156Z,9.85
2022-12-14T15:13:23.141Z,9.52
2022-12-14T15:15:53.447Z,9.93
2022-12-14T15:18:23.566Z,10.32
2022-12-14T15:20:59.476Z,11.32
2022-12-14T15:23:34.725Z,13.15
2022-12-14T15:26:14.636Z,11.77
2022-12-14T15:28:47.607Z,11.50
2022-12-14T15:31:15.105Z,11.68
2022-12-14T15:33:43.610Z,12.35
2022-12-14T15:36:16.265Z,12.13
2022-12-14T15:38:54.777Z,12.27
2022-12-14T15:41:24.305Z,12.48
2022-12-14T15:43:55.129Z,12.10
2022-12-14T15:46:26.949Z,12.27
2022-12-14T15:49:04.020Z,12.23
2022-12-14T15:51:41.170Z,14.15
2022-12-14T15:54:16.061Z,13.80
2022-12-14T15:56:53.669Z,13.90
2022-12-14T15:59:28.421Z,14.38
2022-12-14T16:02:06.708Z,15.57
2022-12-14T16:04:37.905Z,13.40
2022-12-14T16:07:39.291Z,13.23
2022-12-14T16:10:28.525Z,13.02
2022-12-14T16:13:03.793Z,12.63
2022-12-14T16:15:31.680Z,12.30
2022-12-14T16:18:02.743Z,13.85
2022-12-14T16:20:37.740Z,12.63
2022-12-14T16:23:13.299Z,13.27
2022-12-14T16:26:01.131Z,13.60
2022-12-14T16:28:28.140Z,14.85
2022-12-14T16:31:01.640Z,16.92
2022-12-14T16:33:30.808Z,19.92
2022-12-14T16:36:01.781Z,22.23
2022-12-14T16:38:30.188Z,19.33
2022-12-14T16:41:01.042Z,18.38
2022-12-14T16:43:38.374Z,16.42
2022-12-14T16:46:06.285Z,18.02
2022-12-14T16:48:36.976Z,18.88
2022-12-14T16:51:37.870Z,19.38
2022-12-14T16:54:23.775Z,13.85
2022-12-14T16:57:07.309Z,15.60
2022-12-14T16:59:45.603Z,14.68
2022-12-14T17:02:34.536Z,17.77
2022-12-14T17:05:17.667Z,18.27
2022-12-14T17:07:45.015Z,18.80
2022-12-14T17:10:17.988Z,20.00
2022-12-14T17:12:45.280Z,17.73
2022-12-14T17:15:14.268Z,15.68
2022-12-14T17:17:41.840Z,15.48
2022-12-14T17:20:21.217Z,14.63
2022-12-14T17:22:49.445Z,15.43
2022-12-14T17:25:17.464Z,14.20
2022-12-14T17:27:44.561Z,18.02
2022-12-14T17:30:16.677Z,19.65
2022-12-14T17:32:45.040Z,20.10
2022-12-14T17:35:20.843Z,30.67
2022-12-14T17:37:48.323Z,29.02
2022-12-14T17:40:16.741Z,20.83
2022-12-14T17:42:49.385Z,16.95
2022-12-14T17:45:20.693Z,19.17
2022-12-14T17:47:48.337Z,17.52
2022-12-14T17:50:17.257Z,18.45
2022-12-14T17:52:45.500Z,20.25
2022-12-14T17:55:18.944Z,21.52
2022-12-14T17:57:46.394Z,15.38
2022-12-14T18:00:36.955Z,13.57
2022-12-14T18:03:06.529Z,13.93
2022-12-14T18:05:33.935Z,15.77
2022-12-14T18:08:01.135Z,13.90
2022-12-14T18:10:28.862Z,13.85
2022-12-14T18:12:56.354Z,15.60
2022-12-14T18:15:28.502Z,16.00
2022-12-14T18:17:55.997Z,17.40
2022-12-14T18:20:24.114Z,16.80
2022-12-14T18:22:52.090Z,17.45
2022-12-14T18:25:40.917Z,18.27
2022-12-14T18:28:10.783Z,15.57
2022-12-14T18:30:47.552Z,14.75
2022-12-14T18:33:23.253Z,14.80
2022-12-14T18:35:51.760Z,14.70
2022-12-14T18:38:19.185Z,17.65
2022-12-14T18:40:49.629Z,17.88
2022-12-14T18:43:23.373Z,21.42
2022-12-14T18:45:52.244Z,24.58
2022-12-14T18:48:20.318Z,24.98
2022-12-14T18:50:49.732Z,22.98
2022-12-14T18:53:19.074Z,24.27
2022-12-14T18:55:47.037Z,22.90
2022-12-14T18:58:22.306Z,22.02
2022-12-14T19:00:51.910Z,21.50
2022-12-14T19:03:19.227Z,22.30
2022-12-14T19:05:47.249Z,21.27
2022-12-14T19:08:14.570Z,21.73
2022-12-14T19:10:46.082Z,15.90
2022-12-14T19:13:26.024Z,18.08
2022-12-14T19:15:54.633Z,17.10
2022-12-14T19:18:21.949Z,16.45
2022-12-14T19:20:49.550Z,25.05
2022-12-14T19:23:18.979Z,18.77
2022-12-14T19:25:47.206Z,15.98
2022-12-14T19:28:31.589Z,16.38
2022-12-14T19:31:01.196Z,15.20
2022-12-14T19:33:29.160Z,20.38
2022-12-14T19:35:56.512Z,21.75
2022-12-14T19:38:23.529Z,27.40
2022-12-14T19:41:20.087Z,27.27
2022-12-14T19:43:47.504Z,16.95
2022-12-14T19:46:15.722Z,18.42
2022-12-14T19:48:44.578Z,16.10
2022-12-14T19:51:13.516Z,17.05
2022-12-14T19:53:44.899Z,20.73
2022-12-14T19:56:16.790Z,23.20
2022-12-14T19:58:44.989Z,23.83
2022-12-14T20:01:15.274Z,24.60
2022-12-14T20:03:42.857Z,29.80
2022-12-14T20:06:09.998Z,24.63
2022-12-14T20:08:37.654Z,25.35
2022-12-14T20:11:10.995Z,26.63
2022-12-14T20:13:38.482Z,28.83
2022-12-14T20:16:15.608Z,25.25
2022-12-14T20:18:43.074Z,26.35
2022-12-14T20:21:14.993Z,23.20
2022-12-14T20:23:49.087Z,20.65
2022-12-14T20:26:18.315Z,20.35
2022-12-14T20:28:50.328Z,18.13
2022-12-14T20:31:18.254Z,17.35
2022-12-14T20:33:45.625Z,18.05
2022-12-14T20:36:13.424Z,15.98
2022-12-14T20:38:41.185Z,19.65
2022-12-14T20:41:13.513Z,20.75
2022-12-14T20:43:43.439Z,18.10
2022-12-14T20:46:31.530Z,18.95
2022-12-14T20:49:03.728Z,20.02
2022-12-14T20:51:32.912Z,17.88
2022-12-14T20:54:00.867Z,20.42
2022-12-14T20:56:28.567Z,19.23
2022-12-14T20:58:56.057Z,21.52
2022-12-14T21:01:23.487Z,25.15
2022-12-14T21:03:51.179Z,23.00
2022-12-14T21:06:21.266Z,21.17
2022-12-14T21:09:07.369Z,22.48
2022-12-14T21:11:58.341Z,24.45
2022-12-14T21:14:31.081Z,23.50
2022-12-14T21:16:59.118Z,23.27
2022-12-14T21:19:26.433Z,24.25
2022-12-14T21:21:54.369Z,20.23
2022-12-14T21:25:00.495Z,21.02
2022-12-14T21:27:18.065Z,19.50
2022-12-14T21:29:45.897Z,27.92
2022-12-14T21:32:14.116Z,22.10
2022-12-14T21:34:42.548Z,24.58
2022-12-14T21:37:10.117Z,32.58
2022-12-14T21:39:37.560Z,26.98
2022-12-14T21:42:12.875Z,22.23
2022-12-14T21:44:44.815Z,23.23
2022-12-14T21:47:24.110Z,19.10
2022-12-14T21:49:51.467Z,18.10
2022-12-14T21:52:21.325Z,18.67
2022-12-14T21:54:48.569Z,23.98
2022-12-14T21:57:37.032Z,20.60
2022-12-14T22:00:07.568Z,19.20
2022-12-14T22:02:34.893Z,16.50
2022-12-14T22:05:02.241Z,15.60
2022-12-14T22:07:32.222Z,14.20
2022-12-14T22:09:59.378Z,13.60
2022-12-14T22:12:27.043Z,15.13
2022-12-14T22:14:54.045Z,15.25
2022-12-14T22:17:21.149Z,14.23
2022-12-14T22:19:48.909Z,14.48
2022-12-14T22:22:16.693Z,14.32
2022-12-14T22:24:45.085Z,15.68
2022-12-14T22:27:12.976Z,14.07
2022-12-14T22:29:40.266Z,12.75
2022-12-14T22:32:07.692Z,13.05
2022-12-14T22:34:35.470Z,12.60
2022-12-14T22:37:02.608Z,11.02
2022-12-14T22:39:29.753Z,12.23
2022-12-14T22:41:57.080Z,15.68
2022-12-14T22:44:24.294Z,15.85
2022-12-14T22:46:51.274Z,13.07
2022-12-14T22:49:19.695Z,13.30
2022-12-14T22:51:46.850Z,13.30
2022-12-14T22:54:32.579Z,12.95
2022-12-14T22:57:10.204Z,14.27
2022-12-14T22:59:48.196Z,11.48
2022-12-14T23:02:15.819Z,10.68
2022-12-14T23:04:43.016Z,10.55
2022-12-14T23:07:10.099Z,11.65
2022-12-14T23:09:55.455Z,11.88
2022-12-14T23:12:40.991Z,12.05
2022-12-14T23:15:27.351Z,13.77
2022-12-14T23:18:14.146Z,13.10
2022-12-14T23:20:59.600Z,11.43
2022-12-14T23:23:45.012Z,11.05
2022-12-14T23:26:30.938Z,11.02
2022-12-14T23:29:16.427Z,9.73
2022-12-14T23:32:01.711Z,10.20
2022-12-14T23:34:47.910Z,9.52
2022-12-14T23:37:34.085Z,8.63
2022-12-14T23:40:19.535Z,10.32
2022-12-14T23:43:06.052Z,10.25
2022-12-14T23:45:51.462Z,10.27
2022-12-14T23:48:37.041Z,10.30
2022-12-14T23:51:22.986Z,9.73
2022-12-14T23:54:08.900Z,10.93
2022-12-14T23:56:57.655Z,10.85
2022-12-14T23:59:43.031Z,9.70
